sensor_id;sensor_type;location;lat;lon;timestamp;pressure;altitude;pressure_sealevel;temperature;humidity
79048;BME280;68680;50.764;6.120;2024-03-07T00:00:04;100212.84;;;3.51;100.00
79048;BME280;68680;50.764;6.120;2024-03-07T00:02:30;100215.97;;;3.46;100.00
79048;BME280;68680;50.764;6.120;2024-03-07T00:04:55;100211.66;;;3.37;100.00
79048;BME280;68680;50.764;6.120;2024-03-07T00:07:21;100207.47;;;3.26;100.00
79048;BME280;68680;50.764;6.120;2024-03-07T00:09:47;100206.13;;;3.14;100.00
79048;BME280;68680;50.764;6.120;2024-03-07T00:12:14;100203.59;;;3.05;100.00
79048;BME280;68680;50.764;6.120;2024-03-07T00:14:40;100206.03;;;2.98;100.00
79048;BME280;68680;50.764;6.120;2024-03-07T00:17:06;100205.53;;;2.95;100.00
79048;BME280;68680;50.764;6.120;2024-03-07T00:19:31;100206.84;;;2.99;100.00
79048;BME280;68680;50.764;6.120;2024-03-07T00:21:57;100201.72;;;2.97;100.00
79048;BME280;68680;50.764;6.120;2024-03-07T00:24:23;100213.09;;;2.98;100.00
79048;BME280;68680;50.764;6.120;2024-03-07T00:26:49;100202.06;;;2.94;100.00
79048;BME280;68680;50.764;6.120;2024-03-07T00:29:16;100202.56;;;2.98;100.00
79048;BME280;68680;50.764;6.120;2024-03-07T00:31:42;100199.47;;;3.02;100.00
79048;BME280;68680;50.764;6.120;2024-03-07T00:34:08;100200.66;;;3.08;100.00
79048;BME280;68680;50.764;6.120;2024-03-07T00:36:34;100203.78;;;3.11;100.00
79048;BME280;68680;50.764;6.120;2024-03-07T00:39:00;100201.00;;;3.13;100.00
79048;BME280;68680;50.764;6.120;2024-03-07T00:41:25;100199.03;;;3.15;100.00
79048;BME280;68680;50.764;6.120;2024-03-07T00:43:51;100196.03;;;3.10;100.00
79048;BME280;68680;50.764;6.120;2024-03-07T00:46:18;100193.41;;;3.10;100.00
79048;BME280;68680;50.764;6.120;2024-03-07T00:48:44;100186.84;;;3.14;100.00
79048;BME280;68680;50.764;6.120;2024-03-07T00:51:10;100181.38;;;3.07;100.00
79048;BME280;68680;50.764;6.120;2024-03-07T00:53:36;100185.97;;;3.05;100.00
79048;BME280;68680;50.764;6.120;2024-03-07T00:56:02;100182.66;;;3.03;100.00
79048;BME280;68680;50.764;6.120;2024-03-07T00:58:28;100189.59;;;3.04;100.00
79048;BME280;68680;50.764;6.120;2024-03-07T01:00:54;100178.91;;;3.06;100.00
79048;BME280;68680;50.764;6.120;2024-03-07T01:03:21;100185.34;;;3.11;100.00
79048;BME280;68680;50.764;6.120;2024-03-07T01:05:47;100191.78;;;3.17;100.00
79048;BME280;68680;50.764;6.120;2024-03-07T01:08:12;100194.59;;;3.15;100.00
79048;BME280;68680;50.764;6.120;2024-03-07T01:10:38;100189.16;;;3.17;100.00
79048;BME280;68680;50.764;6.120;2024-03-07T01:13:04;100186.47;;;3.09;100.00
79048;BME280;68680;50.764;6.120;2024-03-07T01:15:30;100176.94;;;3.08;100.00
79048;BME280;68680;50.764;6.120;2024-03-07T01:17:56;100174.50;;;3.14;100.00
79048;BME280;68680;50.764;6.120;2024-03-07T01:20:23;100173.69;;;3.14;100.00
79048;BME280;68680;50.764;6.120;2024-03-07T01:22:48;100169.69;;;3.10;100.00
79048;BME280;68680;50.764;6.120;2024-03-07T01:25:14;100167.03;;;3.02;100.00
79048;BME280;68680;50.764;6.120;2024-03-07T01:27:40;100169.66;;;3.02;100.00
79048;BME280;68680;50.764;6.120;2024-03-07T01:30:07;100171.94;;;2.97;100.00
79048;BME280;68680;50.764;6.120;2024-03-07T01:32:33;100172.94;;;2.96;100.00
79048;BME280;68680;50.764;6.120;2024-03-07T01:34:58;100169.13;;;2.98;100.00
79048;BME280;68680;50.764;6.120;2024-03-07T01:37:26;100166.00;;;2.95;100.00
79048;BME280;68680;50.764;6.120;2024-03-07T01:39:51;100168.13;;;2.91;100.00
79048;BME280;68680;50.764;6.120;2024-03-07T01:42:17;100168.91;;;2.83;100.00
79048;BME280;68680;50.764;6.120;2024-03-07T01:44:43;100160.69;;;2.86;100.00
79048;BME280;68680;50.764;6.120;2024-03-07T01:47:09;100158.38;;;2.83;100.00
79048;BME280;68680;50.764;6.120;2024-03-07T01:49:35;100161.16;;;2.82;100.00
79048;BME280;68680;50.764;6.120;2024-03-07T01:52:01;100162.94;;;2.73;100.00
79048;BME280;68680;50.764;6.120;2024-03-07T01:54:30;100159.97;;;2.76;100.00
79048;BME280;68680;50.764;6.120;2024-03-07T01:56:57;100156.16;;;2.71;100.00
79048;BME280;68680;50.764;6.120;2024-03-07T01:59:23;100147.44;;;2.70;100.00
79048;BME280;68680;50.764;6.120;2024-03-07T02:01:50;100141.81;;;2.65;100.00
79048;BME280;68680;50.764;6.120;2024-03-07T02:04:16;100143.13;;;2.61;100.00
79048;BME280;68680;50.764;6.120;2024-03-07T02:06:42;100139.81;;;2.59;100.00
79048;BME280;68680;50.764;6.120;2024-03-07T02:09:08;100137.38;;;2.66;100.00
79048;BME280;68680;50.764;6.120;2024-03-07T02:11:35;100134.41;;;2.69;100.00
79048;BME280;68680;50.764;6.120;2024-03-07T02:14:01;100137.53;;;2.64;100.00
79048;BME280;68680;50.764;6.120;2024-03-07T02:16:27;100137.22;;;2.67;100.00
79048;BME280;68680;50.764;6.120;2024-03-07T02:18:53;100137.53;;;2.64;100.00
79048;BME280;68680;50.764;6.120;2024-03-07T02:21:21;100127.00;;;2.64;100.00
79048;BME280;68680;50.764;6.120;2024-03-07T02:23:46;100130.09;;;2.60;100.00
79048;BME280;68680;50.764;6.120;2024-03-07T02:26:12;100124.34;;;2.56;100.00
79048;BME280;68680;50.764;6.120;2024-03-07T02:28:38;100123.31;;;2.57;100.00
79048;BME280;68680;50.764;6.120;2024-03-07T02:31:04;100122.06;;;2.61;100.00
79048;BME280;68680;50.764;6.120;2024-03-07T02:33:29;100111.97;;;2.57;100.00
79048;BME280;68680;50.764;6.120;2024-03-07T02:35:55;100112.78;;;2.57;100.00
79048;BME280;68680;50.764;6.120;2024-03-07T02:38:22;100109.50;;;2.55;100.00
79048;BME280;68680;50.764;6.120;2024-03-07T02:40:48;100105.16;;;2.46;100.00
79048;BME280;68680;50.764;6.120;2024-03-07T02:43:14;100108.00;;;2.53;100.00
79048;BME280;68680;50.764;6.120;2024-03-07T02:45:39;100106.81;;;2.47;100.00
79048;BME280;68680;50.764;6.120;2024-03-07T02:48:06;100109.78;;;2.44;100.00
79048;BME280;68680;50.764;6.120;2024-03-07T02:50:32;100116.03;;;2.43;100.00
79048;BME280;68680;50.764;6.120;2024-03-07T02:52:57;100110.13;;;2.49;100.00
79048;BME280;68680;50.764;6.120;2024-03-07T02:55:24;100107.44;;;2.41;100.00
79048;BME280;68680;50.764;6.120;2024-03-07T02:57:50;100103.34;;;2.38;100.00
79048;BME280;68680;50.764;6.120;2024-03-07T03:00:17;100105.75;;;2.32;100.00
79048;BME280;68680;50.764;6.120;2024-03-07T03:02:42;100099.75;;;2.22;100.00
79048;BME280;68680;50.764;6.120;2024-03-07T03:05:08;100098.72;;;2.15;100.00
79048;BME280;68680;50.764;6.120;2024-03-07T03:07:34;100104.97;;;2.14;100.00
79048;BME280;68680;50.764;6.120;2024-03-07T03:10:00;100103.81;;;2.16;100.00
79048;BME280;68680;50.764;6.120;2024-03-07T03:12:27;100103.00;;;2.16;100.00
79048;BME280;68680;50.764;6.120;2024-03-07T03:14:52;100093.00;;;2.19;100.00
79048;BME280;68680;50.764;6.120;2024-03-07T03:17:18;100104.59;;;2.09;100.00
79048;BME280;68680;50.764;6.120;2024-03-07T03:19:44;100096.97;;;1.97;100.00
79048;BME280;68680;50.764;6.120;2024-03-07T03:22:10;100099.97;;;2.02;100.00
79048;BME280;68680;50.764;6.120;2024-03-07T03:24:35;100097.97;;;2.04;100.00
79048;BME280;68680;50.764;6.120;2024-03-07T03:27:01;100094.09;;;2.09;100.00
79048;BME280;68680;50.764;6.120;2024-03-07T03:29:28;100096.88;;;2.07;100.00
79048;BME280;68680;50.764;6.120;2024-03-07T03:31:55;100089.50;;;1.93;100.00
79048;BME280;68680;50.764;6.120;2024-03-07T03:34:21;100097.25;;;1.94;100.00
79048;BME280;68680;50.764;6.120;2024-03-07T03:36:46;100088.38;;;1.95;100.00
79048;BME280;68680;50.764;6.120;2024-03-07T03:39:12;100081.19;;;1.97;100.00
79048;BME280;68680;50.764;6.120;2024-03-07T03:41:38;100094.53;;;2.04;100.00
79048;BME280;68680;50.764;6.120;2024-03-07T03:44:04;100089.13;;;2.05;100.00
79048;BME280;68680;50.764;6.120;2024-03-07T03:46:31;100094.69;;;2.02;100.00
79048;BME280;68680;50.764;6.120;2024-03-07T03:48:57;100085.91;;;1.94;100.00
79048;BME280;68680;50.764;6.120;2024-03-07T03:51:23;100086.81;;;2.02;100.00
79048;BME280;68680;50.764;6.120;2024-03-07T03:53:48;100084.38;;;2.09;100.00
79048;BME280;68680;50.764;6.120;2024-03-07T03:56:14;100085.50;;;2.06;100.00
79048;BME280;68680;50.764;6.120;2024-03-07T03:58:40;100083.03;;;2.05;100.00
79048;BME280;68680;50.764;6.120;2024-03-07T04:01:06;100087.47;;;2.04;100.00
79048;BME280;68680;50.764;6.120;2024-03-07T04:03:33;100087.16;;;2.08;100.00
79048;BME280;68680;50.764;6.120;2024-03-07T04:05:58;100083.56;;;2.09;100.00
79048;BME280;68680;50.764;6.120;2024-03-07T04:08:24;100089.78;;;2.08;100.00
79048;BME280;68680;50.764;6.120;2024-03-07T04:10:50;100093.72;;;2.03;100.00
79048;BME280;68680;50.764;6.120;2024-03-07T04:13:16;100087.78;;;2.01;100.00
79048;BME280;68680;50.764;6.120;2024-03-07T04:15:41;100085.97;;;2.02;100.00
79048;BME280;68680;50.764;6.120;2024-03-07T04:18:07;100085.97;;;2.02;100.00
79048;BME280;68680;50.764;6.120;2024-03-07T04:20:34;100082.38;;;2.03;100.00
79048;BME280;68680;50.764;6.120;2024-03-07T04:23:00;100084.19;;;2.02;100.00
79048;BME280;68680;50.764;6.120;2024-03-07T04:25:26;100079.28;;;2.08;100.00
79048;BME280;68680;50.764;6.120;2024-03-07T04:27:51;100077.63;;;2.06;100.00
79048;BME280;68680;50.764;6.120;2024-03-07T04:30:17;100085.16;;;2.01;100.00
79048;BME280;68680;50.764;6.120;2024-03-07T04:32:43;100076.56;;;1.74;100.00
79048;BME280;68680;50.764;6.120;2024-03-07T04:35:09;100067.97;;;1.72;100.00
79048;BME280;68680;50.764;6.120;2024-03-07T04:37:36;100078.25;;;1.83;100.00
79048;BME280;68680;50.764;6.120;2024-03-07T04:40:04;100074.94;;;1.81;100.00
79048;BME280;68680;50.764;6.120;2024-03-07T04:42:30;100072.16;;;1.82;100.00
79048;BME280;68680;50.764;6.120;2024-03-07T04:44:56;100071.06;;;1.85;100.00
79048;BME280;68680;50.764;6.120;2024-03-07T04:47:22;100073.53;;;1.86;100.00
79048;BME280;68680;50.764;6.120;2024-03-07T04:49:47;100068.56;;;1.83;100.00
79048;BME280;68680;50.764;6.120;2024-03-07T04:52:13;100071.88;;;1.85;100.00
79048;BME280;68680;50.764;6.120;2024-03-07T04:54:40;100067.88;;;1.81;100.00
79048;BME280;68680;50.764;6.120;2024-03-07T04:57:06;100065.94;;;1.83;100.00
79048;BME280;68680;50.764;6.120;2024-03-07T04:59:32;100064.44;;;1.81;100.00
79048;BME280;68680;50.764;6.120;2024-03-07T05:01:57;100064.97;;;1.84;100.00
79048;BME280;68680;50.764;6.120;2024-03-07T05:04:23;100068.28;;;1.86;100.00
79048;BME280;68680;50.764;6.120;2024-03-07T05:06:49;100063.53;;;1.90;100.00
79048;BME280;68680;50.764;6.120;2024-03-07T05:09:15;100065.47;;;1.88;100.00
79048;BME280;68680;50.764;6.120;2024-03-07T05:11:42;100060.22;;;1.88;100.00
79048;BME280;68680;50.764;6.120;2024-03-07T05:14:08;100063.53;;;1.90;100.00
79048;BME280;68680;50.764;6.120;2024-03-07T05:16:33;100063.66;;;1.88;100.00
79048;BME280;68680;50.764;6.120;2024-03-07T05:18:59;100066.16;;;1.90;100.00
79048;BME280;68680;50.764;6.120;2024-03-07T05:21:26;100058.25;;;1.90;100.00
79048;BME280;68680;50.764;6.120;2024-03-07T05:23:51;100062.84;;;1.88;100.00
79048;BME280;68680;50.764;6.120;2024-03-07T05:26:17;100063.81;;;1.87;100.00
79048;BME280;68680;50.764;6.120;2024-03-07T05:28:44;100056.72;;;1.79;100.00
79048;BME280;68680;50.764;6.120;2024-03-07T05:31:10;100060.16;;;1.80;100.00
79048;BME280;68680;50.764;6.120;2024-03-07T05:33:36;100056.16;;;1.76;100.00
79048;BME280;68680;50.764;6.120;2024-03-07T05:36:02;100049.28;;;1.75;100.00
79048;BME280;68680;50.764;6.120;2024-03-07T05:38:28;100052.56;;;1.77;100.00
79048;BME280;68680;50.764;6.120;2024-03-07T05:40:54;100050.78;;;1.77;100.00
79048;BME280;68680;50.764;6.120;2024-03-07T05:43:19;100053.72;;;1.74;100.00
79048;BME280;68680;50.764;6.120;2024-03-07T05:45:46;100049.06;;;1.68;100.00
79048;BME280;68680;50.764;6.120;2024-03-07T05:48:15;100055.53;;;1.74;100.00
79048;BME280;68680;50.764;6.120;2024-03-07T05:50:41;100056.50;;;1.73;100.00
79048;BME280;68680;50.764;6.120;2024-03-07T05:53:06;100057.31;;;1.73;100.00
79048;BME280;68680;50.764;6.120;2024-03-07T05:55:32;100056.50;;;1.73;100.00
79048;BME280;68680;50.764;6.120;2024-03-07T05:57:58;100054.09;;;1.79;100.00
79048;BME280;68680;50.764;6.120;2024-03-07T06:00:24;100054.91;;;1.80;100.00
79048;BME280;68680;50.764;6.120;2024-03-07T06:02:51;100058.50;;;1.79;100.00
79048;BME280;68680;50.764;6.120;2024-03-07T06:05:16;100046.81;;;1.73;100.00
79048;BME280;68680;50.764;6.120;2024-03-07T06:07:42;100052.06;;;1.73;100.00
79048;BME280;68680;50.764;6.120;2024-03-07T06:10:09;100053.19;;;1.71;100.00
79048;BME280;68680;50.764;6.120;2024-03-07T06:12:34;100046.59;;;1.67;100.00
79048;BME280;68680;50.764;6.120;2024-03-07T06:15:00;100044.25;;;1.63;100.00
79048;BME280;68680;50.764;6.120;2024-03-07T06:17:26;100043.13;;;1.66;100.00
79048;BME280;68680;50.764;6.120;2024-03-07T06:19:53;100044.09;;;1.65;100.00
79048;BME280;68680;50.764;6.120;2024-03-07T06:22:19;100050.28;;;1.56;100.00
79048;BME280;68680;50.764;6.120;2024-03-07T06:24:44;100049.00;;;1.60;100.00
79048;BME280;68680;50.764;6.120;2024-03-07T06:27:10;100047.09;;;1.70;100.00
79048;BME280;68680;50.764;6.120;2024-03-07T06:29:36;100050.25;;;1.74;100.00
79048;BME280;68680;50.764;6.120;2024-03-07T06:32:02;100051.75;;;1.76;100.00
79048;BME280;68680;50.764;6.120;2024-03-07T06:34:27;100053.09;;;1.80;100.00
79048;BME280;68680;50.764;6.120;2024-03-07T06:36:54;100051.28;;;1.81;100.00
79048;BME280;68680;50.764;6.120;2024-03-07T06:39:20;100043.09;;;1.84;100.00
79048;BME280;68680;50.764;6.120;2024-03-07T06:41:46;100044.28;;;1.89;100.00
79048;BME280;68680;50.764;6.120;2024-03-07T06:44:12;100041.16;;;1.86;100.00
79048;BME280;68680;50.764;6.120;2024-03-07T06:46:37;100040.16;;;1.87;100.00
79048;BME280;68680;50.764;6.120;2024-03-07T06:49:03;100048.72;;;1.89;100.00
79048;BME280;68680;50.764;6.120;2024-03-07T06:51:29;100045.94;;;1.90;100.00
79048;BME280;68680;50.764;6.120;2024-03-07T06:53:56;100047.41;;;1.93;100.00
79048;BME280;68680;50.764;6.120;2024-03-07T06:56:22;100041.34;;;1.92;100.00
79048;BME280;68680;50.764;6.120;2024-03-07T06:58:48;100037.66;;;2.03;100.00
79048;BME280;68680;50.764;6.120;2024-03-07T07:01:14;100036.34;;;2.07;100.00
79048;BME280;68680;50.764;6.120;2024-03-07T07:03:40;100046.25;;;2.13;100.00
79048;BME280;68680;50.764;6.120;2024-03-07T07:06:06;100042.38;;;2.25;100.00
79048;BME280;68680;50.764;6.120;2024-03-07T07:08:32;100042.25;;;2.35;100.00
79048;BME280;68680;50.764;6.120;2024-03-07T07:10:59;100033.94;;;2.47;100.00
79048;BME280;68680;50.764;6.120;2024-03-07T07:13:25;100035.78;;;2.55;100.00
79048;BME280;68680;50.764;6.120;2024-03-07T07:15:51;100043.41;;;2.66;100.00
79048;BME280;68680;50.764;6.120;2024-03-07T07:18:17;100042.91;;;2.71;100.00
79048;BME280;68680;50.764;6.120;2024-03-07T07:20:43;100035.50;;;2.74;100.00
79048;BME280;68680;50.764;6.120;2024-03-07T07:23:09;100043.59;;;2.81;100.00
79048;BME280;68680;50.764;6.120;2024-03-07T07:25:34;100042.97;;;2.87;100.00
79048;BME280;68680;50.764;6.120;2024-03-07T07:28:03;100042.19;;;2.95;100.00
79048;BME280;68680;50.764;6.120;2024-03-07T07:30:29;100038.25;;;3.07;100.00
79048;BME280;68680;50.764;6.120;2024-03-07T07:32:55;100034.00;;;3.22;100.00
79048;BME280;68680;50.764;6.120;2024-03-07T07:35:22;100044.09;;;3.43;100.00
79048;BME280;68680;50.764;6.120;2024-03-07T07:37:51;100042.28;;;3.51;100.00
79048;BME280;68680;50.764;6.120;2024-03-07T07:40:18;100034.34;;;3.51;100.00
79048;BME280;68680;50.764;6.120;2024-03-07T07:42:45;100030.75;;;3.60;100.00
79048;BME280;68680;50.764;6.120;2024-03-07T07:45:14;100025.63;;;3.83;100.00
79048;BME280;68680;50.764;6.120;2024-03-07T07:47:42;100023.63;;;4.01;100.00
79048;BME280;68680;50.764;6.120;2024-03-07T07:50:15;100013.84;;;4.18;100.00
79048;BME280;68680;50.764;6.120;2024-03-07T07:52:41;100010.66;;;4.39;100.00
79048;BME280;68680;50.764;6.120;2024-03-07T07:55:08;100018.50;;;4.55;100.00
79048;BME280;68680;50.764;6.120;2024-03-07T07:57:34;100023.91;;;4.70;100.00
79048;BME280;68680;50.764;6.120;2024-03-07T07:59:59;100010.84;;;4.68;100.00
79048;BME280;68680;50.764;6.120;2024-03-07T08:02:26;100007.88;;;4.71;100.00
79048;BME280;68680;50.764;6.120;2024-03-07T08:04:52;100012.50;;;4.69;100.00
79048;BME280;68680;50.764;6.120;2024-03-07T08:07:18;100013.78;;;4.81;100.00
79048;BME280;68680;50.764;6.120;2024-03-07T08:09:44;100009.63;;;4.87;100.00
79048;BME280;68680;50.764;6.120;2024-03-07T08:12:09;100015.56;;;4.89;100.00
79048;BME280;68680;50.764;6.120;2024-03-07T08:14:35;100010.22;;;4.97;100.00
79048;BME280;68680;50.764;6.120;2024-03-07T08:17:01;100017.03;;;5.14;100.00
79048;BME280;68680;50.764;6.120;2024-03-07T08:19:28;100010.34;;;5.04;100.00
79048;BME280;68680;50.764;6.120;2024-03-07T08:21:54;100004.19;;;5.11;100.00
79048;BME280;68680;50.764;6.120;2024-03-07T08:24:19;100007.06;;;5.24;100.00
79048;BME280;68680;50.764;6.120;2024-03-07T08:26:45;100003.38;;;5.33;100.00
79048;BME280;68680;50.764;6.120;2024-03-07T08:29:11;99998.81;;;5.42;100.00
79048;BME280;68680;50.764;6.120;2024-03-07T08:31:37;100004.47;;;5.62;100.00
79048;BME280;68680;50.764;6.120;2024-03-07T08:34:02;99993.34;;;5.66;100.00
79048;BME280;68680;50.764;6.120;2024-03-07T08:36:29;99994.72;;;5.77;100.00
79048;BME280;68680;50.764;6.120;2024-03-07T08:38:55;99991.97;;;5.93;100.00
79048;BME280;68680;50.764;6.120;2024-03-07T08:41:21;99990.47;;;5.76;98.87
79048;BME280;68680;50.764;6.120;2024-03-07T08:43:47;99989.75;;;5.82;95.92
79048;BME280;68680;50.764;6.120;2024-03-07T08:46:12;99989.34;;;5.93;94.40
79048;BME280;68680;50.764;6.120;2024-03-07T08:48:38;99993.91;;;6.14;92.44
79048;BME280;68680;50.764;6.120;2024-03-07T08:51:04;99991.34;;;6.21;87.78
79048;BME280;68680;50.764;6.120;2024-03-07T08:53:31;99991.09;;;6.15;86.94
79048;BME280;68680;50.764;6.120;2024-03-07T08:55:57;99977.31;;;6.35;85.26
79048;BME280;68680;50.764;6.120;2024-03-07T08:58:23;99987.03;;;6.49;83.52
79048;BME280;68680;50.764;6.120;2024-03-07T09:00:48;99987.41;;;6.60;82.44
79048;BME280;68680;50.764;6.120;2024-03-07T09:03:14;99983.91;;;6.60;82.80
79048;BME280;68680;50.764;6.120;2024-03-07T09:05:40;99988.88;;;6.63;82.80
79048;BME280;68680;50.764;6.120;2024-03-07T09:08:06;99995.72;;;6.13;86.86
79048;BME280;68680;50.764;6.120;2024-03-07T09:10:33;99986.41;;;6.47;81.75
79048;BME280;68680;50.764;6.120;2024-03-07T09:12:59;99993.47;;;6.76;80.16
79048;BME280;68680;50.764;6.120;2024-03-07T09:15:25;99990.56;;;6.85;78.18
79048;BME280;68680;50.764;6.120;2024-03-07T09:17:51;99991.63;;;6.91;77.81
79048;BME280;68680;50.764;6.120;2024-03-07T09:20:17;99986.03;;;7.00;76.37
79048;BME280;68680;50.764;6.120;2024-03-07T09:22:43;99987.31;;;7.05;76.08
79048;BME280;68680;50.764;6.120;2024-03-07T09:25:09;99981.69;;;7.14;76.40
79048;BME280;68680;50.764;6.120;2024-03-07T09:27:37;99990.97;;;7.25;75.31
79048;BME280;68680;50.764;6.120;2024-03-07T09:30:03;99986.47;;;7.47;74.24
79048;BME280;68680;50.764;6.120;2024-03-07T09:32:29;99984.38;;;7.63;74.56
79048;BME280;68680;50.764;6.120;2024-03-07T09:34:55;99981.41;;;7.73;76.36
79048;BME280;68680;50.764;6.120;2024-03-07T09:37:21;99978.19;;;7.35;80.00
79048;BME280;68680;50.764;6.120;2024-03-07T09:39:47;99977.56;;;7.12;81.43
79048;BME280;68680;50.764;6.120;2024-03-07T09:42:16;99977.22;;;7.15;81.98
79048;BME280;68680;50.764;6.120;2024-03-07T09:44:45;99977.81;;;7.17;79.14
79048;BME280;68680;50.764;6.120;2024-03-07T09:47:13;99971.59;;;7.24;77.99
79048;BME280;68680;50.764;6.120;2024-03-07T09:49:39;99969.69;;;7.39;78.69
79048;BME280;68680;50.764;6.120;2024-03-07T09:52:07;99974.47;;;7.29;75.61
79048;BME280;68680;50.764;6.120;2024-03-07T09:54:33;99973.97;;;7.40;73.55
79048;BME280;68680;50.764;6.120;2024-03-07T09:56:59;99969.63;;;7.33;72.20
79048;BME280;68680;50.764;6.120;2024-03-07T09:59:27;99980.81;;;7.50;72.52
79048;BME280;68680;50.764;6.120;2024-03-07T10:01:56;99969.66;;;7.89;72.14
79048;BME280;68680;50.764;6.120;2024-03-07T10:04:29;99973.63;;;7.99;69.90
79048;BME280;68680;50.764;6.120;2024-03-07T10:06:57;99976.56;;;8.11;69.10
79048;BME280;68680;50.764;6.120;2024-03-07T10:09:23;99967.44;;;8.20;69.13
79048;BME280;68680;50.764;6.120;2024-03-07T10:11:56;99965.00;;;8.25;68.47
79048;BME280;68680;50.764;6.120;2024-03-07T10:14:22;99973.28;;;8.37;67.71
79048;BME280;68680;50.764;6.120;2024-03-07T10:16:48;99975.34;;;8.41;65.66
79048;BME280;68680;50.764;6.120;2024-03-07T10:19:15;99971.31;;;8.58;65.42
79048;BME280;68680;50.764;6.120;2024-03-07T10:21:41;99967.81;;;8.51;65.99
79048;BME280;68680;50.764;6.120;2024-03-07T10:24:08;99970.69;;;8.22;67.19
79048;BME280;68680;50.764;6.120;2024-03-07T10:26:35;99969.69;;;8.23;66.83
79048;BME280;68680;50.764;6.120;2024-03-07T10:29:01;99969.06;;;8.21;67.46
79048;BME280;68680;50.764;6.120;2024-03-07T10:31:30;99966.38;;;7.87;67.38
79048;BME280;68680;50.764;6.120;2024-03-07T10:33:59;99961.84;;;7.80;69.37
79048;BME280;68680;50.764;6.120;2024-03-07T10:36:26;99965.00;;;7.91;68.81
79048;BME280;68680;50.764;6.120;2024-03-07T10:38:52;99956.03;;;7.98;67.71
79048;BME280;68680;50.764;6.120;2024-03-07T10:41:19;99956.94;;;8.12;67.30
79048;BME280;68680;50.764;6.120;2024-03-07T10:43:47;99957.19;;;8.17;67.18
79048;BME280;68680;50.764;6.120;2024-03-07T10:46:20;99946.78;;;8.22;66.02
79048;BME280;68680;50.764;6.120;2024-03-07T10:48:54;99952.31;;;8.27;65.81
79048;BME280;68680;50.764;6.120;2024-03-07T10:51:28;99950.22;;;8.16;64.28
79048;BME280;68680;50.764;6.120;2024-03-07T10:54:06;99947.31;;;8.45;64.91
79048;BME280;68680;50.764;6.120;2024-03-07T10:56:47;99947.25;;;8.73;64.58
79048;BME280;68680;50.764;6.120;2024-03-07T10:59:23;99945.59;;;8.65;64.12
79048;BME280;68680;50.764;6.120;2024-03-07T11:01:59;99940.28;;;8.72;62.10
79048;BME280;68680;50.764;6.120;2024-03-07T11:04:25;99937.25;;;8.82;62.08
79048;BME280;68680;50.764;6.120;2024-03-07T11:06:53;99940.97;;;9.00;61.72
79048;BME280;68680;50.764;6.120;2024-03-07T11:09:19;99938.72;;;9.11;60.43
79048;BME280;68680;50.764;6.120;2024-03-07T11:11:46;99933.41;;;9.11;61.17
79048;BME280;68680;50.764;6.120;2024-03-07T11:14:12;99934.66;;;9.08;62.26
79048;BME280;68680;50.764;6.120;2024-03-07T11:16:40;99925.16;;;8.86;62.91
79048;BME280;68680;50.764;6.120;2024-03-07T11:19:28;99924.81;;;9.02;62.32
79048;BME280;68680;50.764;6.120;2024-03-07T11:21:56;99920.09;;;8.91;61.01
79048;BME280;68680;50.764;6.120;2024-03-07T11:24:27;99918.50;;;9.23;59.47
79048;BME280;68680;50.764;6.120;2024-03-07T11:26:54;99913.94;;;8.97;59.93
79048;BME280;68680;50.764;6.120;2024-03-07T11:29:41;99923.56;;;8.85;60.23
79048;BME280;68680;50.764;6.120;2024-03-07T11:32:07;99913.31;;;8.88;60.14
79048;BME280;68680;50.764;6.120;2024-03-07T11:34:38;99919.88;;;8.79;60.61
79048;BME280;68680;50.764;6.120;2024-03-07T11:37:05;99913.31;;;8.88;59.45
79048;BME280;68680;50.764;6.120;2024-03-07T11:39:40;99909.88;;;9.01;60.11
79048;BME280;68680;50.764;6.120;2024-03-07T11:42:06;99917.28;;;8.45;60.07
79048;BME280;68680;50.764;6.120;2024-03-07T11:44:32;99897.91;;;8.16;59.48
79048;BME280;68680;50.764;6.120;2024-03-07T11:46:58;99894.50;;;8.29;59.38
79048;BME280;68680;50.764;6.120;2024-03-07T11:49:23;99896.44;;;8.48;58.17
79048;BME280;68680;50.764;6.120;2024-03-07T11:51:49;99895.88;;;8.59;57.85
79048;BME280;68680;50.764;6.120;2024-03-07T11:54:16;99894.06;;;8.67;57.73
79048;BME280;68680;50.764;6.120;2024-03-07T11:56:43;99882.38;;;8.61;58.57
79048;BME280;68680;50.764;6.120;2024-03-07T11:59:10;99880.94;;;8.58;57.67
79048;BME280;68680;50.764;6.120;2024-03-07T12:01:36;99872.09;;;8.45;58.07
79048;BME280;68680;50.764;6.120;2024-03-07T12:04:02;99870.31;;;8.65;57.92
79048;BME280;68680;50.764;6.120;2024-03-07T12:06:27;99875.69;;;8.85;58.40
79048;BME280;68680;50.764;6.120;2024-03-07T12:08:53;99861.09;;;8.61;57.20
79048;BME280;68680;50.764;6.120;2024-03-07T12:11:20;99862.72;;;8.62;57.13
79048;BME280;68680;50.764;6.120;2024-03-07T12:13:46;99857.41;;;8.69;57.45
79048;BME280;68680;50.764;6.120;2024-03-07T12:16:12;99852.97;;;8.82;58.64
79048;BME280;68680;50.764;6.120;2024-03-07T12:18:38;99853.19;;;8.94;58.06
79048;BME280;68680;50.764;6.120;2024-03-07T12:21:04;99838.25;;;9.06;58.30
79048;BME280;68680;50.764;6.120;2024-03-07T12:23:30;99841.72;;;9.20;56.98
79048;BME280;68680;50.764;6.120;2024-03-07T12:26:00;99834.34;;;9.22;56.45
79048;BME280;68680;50.764;6.120;2024-03-07T12:28:27;99840.50;;;9.29;56.70
79048;BME280;68680;50.764;6.120;2024-03-07T12:30:55;99833.53;;;9.21;57.73
79048;BME280;68680;50.764;6.120;2024-03-07T12:33:22;99823.25;;;9.38;58.75
79048;BME280;68680;50.764;6.120;2024-03-07T12:35:50;99827.81;;;9.31;56.10
79048;BME280;68680;50.764;6.120;2024-03-07T12:38:16;99831.47;;;9.30;56.02
79048;BME280;68680;50.764;6.120;2024-03-07T12:40:43;99819.19;;;9.22;56.08
79048;BME280;68680;50.764;6.120;2024-03-07T12:43:17;99819.19;;;9.35;55.87
79048;BME280;68680;50.764;6.120;2024-03-07T12:45:48;99810.81;;;9.25;56.03
79048;BME280;68680;50.764;6.120;2024-03-07T12:48:13;99804.88;;;9.17;56.71
79048;BME280;68680;50.764;6.120;2024-03-07T12:50:40;99796.66;;;9.38;56.88
79048;BME280;68680;50.764;6.120;2024-03-07T12:53:06;99800.53;;;9.48;55.63